Milos — A8TH8 — position and weather

sailwx.info

Track history (hours):
 
Tides and Currents Weather Stations Pressure Air Temp Water Temp Dewpoint Dewpoint Depression Visibility Wind Speed Wind Dir Waves Ship Positions

Milos

Last reported at 2016-Jun-08 12:32 UTC. Time now 2016-Jun-30 03:21 UTC.
Position N 22°37' E 119°48'.
Warning: this ship's position is 21 days out of date.

Length 190 m; draft 12.8 m.

Type: Cargo ship. MMSI: 636014358.

Date/timePositionNaut miles runAvg speedWind from/ knotsBaromVisibWave heightAir tempDewpointWater temp
2016-Jun-08 12:32N 22°37' E 119°48'1010.6
2016-Jun-08 11:32N 22°46' E 119°53'  
2016-Jun-05 18:16N 34°33' E 123°21'911.1
2016-Jun-05 17:30N 34°41' E 123°20'5011.9
2016-Jun-05 13:16N 35°31' E 123°09'913.1
2016-Jun-05 12:33N 35°40' E 123°07'1313.0
2016-Jun-05 11:33N 35°53' E 123°05'1212.5
2016-Jun-05 10:33N 36°05' E 123°02'1511.9
2016-Jun-05 09:18N 36°20' E 122°59'911.6
2016-Jun-05 08:33N 36°29' E 122°57'1111.2
2016-Jun-05 07:33N 36°40' E 122°55'1111.3
2016-Jun-05 06:33N 36°51' E 122°52'1211.8
2016-Jun-05 05:33N 37°02' E 122°48'1312.9
2016-Jun-05 04:33N 37°15' E 122°47'1413.7
2016-Jun-05 03:33N 37°28' E 122°43'1312.9
2016-Jun-05 02:33N 37°38' E 122°32'1211.9
2016-Jun-05 01:32N 37°45' E 122°19'  
Track history (hours):
 
Tides and Currents Weather Stations Pressure Air Temp Water Temp Dewpoint Dewpoint Depression Visibility Wind Speed Wind Dir Waves Ship Positions

Milos

Last reported at 2016-Jun-08 12:32 UTC. Time now 2016-Jun-30 03:21 UTC.
Position N 22°37' E 119°48'.
Warning: this ship's position is 21 days out of date.

Length 190 m; draft 12.8 m.

Type: Cargo ship. MMSI: 636014358.

Date/timePositionNaut miles runAvg speedWind from/ knotsBaromVisibWave heightAir tempDewpointWater temp
2016-Jun-08 12:32N 22°37' E 119°48'1010.6
2016-Jun-08 11:32N 22°46' E 119°53'  
2016-Jun-05 18:16N 34°33' E 123°21'911.1
2016-Jun-05 17:30N 34°41' E 123°20'5011.9
2016-Jun-05 13:16N 35°31' E 123°09'913.1
2016-Jun-05 12:33N 35°40' E 123°07'1313.0
2016-Jun-05 11:33N 35°53' E 123°05'1212.5
2016-Jun-05 10:33N 36°05' E 123°02'1511.9
2016-Jun-05 09:18N 36°20' E 122°59'911.6
2016-Jun-05 08:33N 36°29' E 122°57'1111.2
2016-Jun-05 07:33N 36°40' E 122°55'1111.3
2016-Jun-05 06:33N 36°51' E 122°52'1211.8
2016-Jun-05 05:33N 37°02' E 122°48'1312.9
2016-Jun-05 04:33N 37°15' E 122°47'1413.7
2016-Jun-05 03:33N 37°28' E 122°43'1312.9
2016-Jun-05 02:33N 37°38' E 122°32'1211.9
2016-Jun-05 01:32N 37°45' E 122°19'  

Dump ship's entire track history